THA153 VTBS-WIII
Flight info
| Callsign | THA153 |
|---|---|
| Flight time | N/A |
| Altitude | 41000 |
| Route | BUT1E BUT Y11 PASVA Y514 NUFFA DCT BIKTA B469 VMR B338 ANITO B470 BUNIK BUNIK2F |
| Aircraft | A359/H-SDE2E3GHIJ3J4J5LM1ORWXY/LB1D1 |
Departure
| Time | 2026-05-06 06:32 |
|---|---|
| Airport | Suvarnabhumi Airport (VTBS) |
Arrival
| Time | N/A |
|---|---|
| Airport | Soekarno-Hatta International Airport (WIII) |
| Time | Latitude | Longitude | Altitude | Speed | Heading |
|---|---|---|---|---|---|
| 2026-05-06 06:22 | 13.69369 | 100.75743 | 22 ft | 0 kts | 104° |
| 2026-05-06 06:26 | 13.68209 | 100.75259 | 63 ft | 419 kts | 104° |
| 2026-05-06 06:27 | 13.68338 | 100.74959 | 19 ft | 0 kts | 104° |
| 2026-05-06 06:27 | 13.68347 | 100.74967 | 25 ft | 4 kts | 32° |
| 2026-05-06 06:27 | 13.68376 | 100.74915 | 23 ft | 16 kts | 288° |
| 2026-05-06 06:27 | 13.68436 | 100.74758 | 20 ft | 30 kts | 293° |
| 2026-05-06 06:28 | 13.68488 | 100.74558 | 23 ft | 27 kts | 283° |
| 2026-05-06 06:28 | 13.68529 | 100.74387 | 23 ft | 25 kts | 289° |
| 2026-05-06 06:28 | 13.68567 | 100.74251 | 21 ft | 15 kts | 283° |
| 2026-05-06 06:28 | 13.68601 | 100.74174 | 24 ft | 12 kts | 319° |
| 2026-05-06 06:29 | 13.68671 | 100.74166 | 24 ft | 12 kts | 9° |
| 2026-05-06 06:29 | 13.68745 | 100.74182 | 21 ft | 12 kts | 16° |
| 2026-05-06 06:29 | 13.68872 | 100.74216 | 23 ft | 25 kts | 14° |
| 2026-05-06 06:29 | 13.69055 | 100.74263 | 23 ft | 29 kts | 14° |
| 2026-05-06 06:30 | 13.69222 | 100.74309 | 23 ft | 22 kts | 14° |
| 2026-05-06 06:30 | 13.69382 | 100.74350 | 22 ft | 25 kts | 13° |
| 2026-05-06 06:30 | 13.69558 | 100.74395 | 23 ft | 27 kts | 15° |
| 2026-05-06 06:30 | 13.69747 | 100.74445 | 23 ft | 28 kts | 14° |
| 2026-05-06 06:31 | 13.69954 | 100.74500 | 22 ft | 34 kts | 14° |
| 2026-05-06 06:31 | 13.70155 | 100.74545 | 23 ft | 19 kts | 352° |
| 2026-05-06 06:31 | 13.70220 | 100.74439 | 22 ft | 21 kts | 285° |
| 2026-05-06 06:31 | 13.70206 | 100.74285 | 24 ft | 23 kts | 218° |
| 2026-05-06 06:32 | 13.69884 | 100.74194 | 19 ft | 87 kts | 193° |
| 2026-05-06 06:32 | 13.69060 | 100.73976 | 24 ft | 155 kts | 194° |
| 2026-05-06 06:32 | 13.67863 | 100.73662 | 317 ft | 187 kts | 195° |
| 2026-05-06 06:32 | 13.66553 | 100.73286 | 778 ft | 206 kts | 195° |
| 2026-05-06 06:33 | 13.65053 | 100.72886 | 981 ft | 239 kts | 193° |
| 2026-05-06 06:33 | 13.63367 | 100.72457 | 1546 ft | 256 kts | 193° |
| 2026-05-06 06:33 | 13.61631 | 100.72010 | 2541 ft | 258 kts | 193° |
| 2026-05-06 06:33 | 13.59864 | 100.71549 | 3495 ft | 265 kts | 193° |
| 2026-05-06 06:34 | 13.58064 | 100.71078 | 4481 ft | 269 kts | 193° |
| 2026-05-06 06:34 | 13.56260 | 100.70604 | 5412 ft | 273 kts | 193° |
| 2026-05-06 06:34 | 13.54400 | 100.70114 | 6386 ft | 276 kts | 192° |
| 2026-05-06 06:34 | 13.52518 | 100.69663 | 7320 ft | 279 kts | 187° |
| 2026-05-06 06:35 | 13.50580 | 100.69446 | 8267 ft | 282 kts | 183° |
| 2026-05-06 06:35 | 13.48606 | 100.69310 | 9110 ft | 287 kts | 182° |
| 2026-05-06 06:35 | 13.46591 | 100.69180 | 9657 ft | 292 kts | 183° |
| 2026-05-06 06:35 | 13.44554 | 100.69045 | 9828 ft | 294 kts | 183° |
| 2026-05-06 06:36 | 13.42508 | 100.68906 | 9847 ft | 295 kts | 182° |
| 2026-05-06 06:36 | 13.40460 | 100.68765 | 9856 ft | 295 kts | 182° |
| 2026-05-06 06:36 | 13.38409 | 100.68626 | 9853 ft | 296 kts | 183° |
| 2026-05-06 06:36 | 13.36352 | 100.68484 | 9851 ft | 296 kts | 183° |
| 2026-05-06 06:37 | 13.34297 | 100.68343 | 9849 ft | 296 kts | 183° |
| 2026-05-06 06:37 | 13.32240 | 100.68202 | 9847 ft | 296 kts | 183° |
| 2026-05-06 06:37 | 13.30208 | 100.68078 | 9845 ft | 296 kts | 181° |
| 2026-05-06 06:37 | 13.28183 | 100.68370 | 9852 ft | 295 kts | 159° |
| 2026-05-06 06:38 | 13.26365 | 100.69360 | 10032 ft | 301 kts | 147° |
| 2026-05-06 06:38 | 13.24548 | 100.70576 | 10319 ft | 324 kts | 146° |
| 2026-05-06 06:38 | 13.22605 | 100.71890 | 10750 ft | 343 kts | 146° |
| 2026-05-06 06:38 | 13.20579 | 100.73250 | 11430 ft | 351 kts | 147° |
| 2026-05-06 06:39 | 13.18512 | 100.74633 | 12173 ft | 358 kts | 147° |
| 2026-05-06 06:39 | 13.16407 | 100.76037 | 12978 ft | 363 kts | 147° |
| 2026-05-06 06:39 | 13.14299 | 100.77442 | 13735 ft | 368 kts | 147° |
| 2026-05-06 06:39 | 13.12140 | 100.78880 | 14416 ft | 373 kts | 147° |
| 2026-05-06 06:40 | 13.09950 | 100.80338 | 15066 ft | 378 kts | 147° |
| 2026-05-06 06:40 | 13.07668 | 100.81708 | 15727 ft | 383 kts | 153° |
| 2026-05-06 06:40 | 13.05236 | 100.82853 | 16392 ft | 387 kts | 156° |
| 2026-05-06 06:40 | 13.02747 | 100.83960 | 17040 ft | 392 kts | 156° |
| 2026-05-06 06:41 | 13.00232 | 100.85075 | 17689 ft | 396 kts | 156° |
| 2026-05-06 06:41 | 12.97690 | 100.86206 | 18328 ft | 400 kts | 156° |
| 2026-05-06 06:41 | 12.95124 | 100.87349 | 18894 ft | 404 kts | 156° |
| 2026-05-06 06:41 | 12.92539 | 100.88502 | 19471 ft | 407 kts | 156° |
| 2026-05-06 06:42 | 12.89924 | 100.89666 | 20058 ft | 410 kts | 156° |
| 2026-05-06 06:42 | 12.87293 | 100.90840 | 20653 ft | 414 kts | 156° |
| 2026-05-06 06:42 | 12.84642 | 100.92024 | 21247 ft | 418 kts | 156° |
| 2026-05-06 06:42 | 12.81962 | 100.93221 | 21846 ft | 421 kts | 156° |
| 2026-05-06 06:43 | 12.79262 | 100.94426 | 22435 ft | 425 kts | 156° |
| 2026-05-06 06:43 | 12.76538 | 100.95641 | 23033 ft | 429 kts | 156° |
| 2026-05-06 06:43 | 12.73789 | 100.96867 | 23576 ft | 432 kts | 156° |
| 2026-05-06 06:43 | 12.71016 | 100.98104 | 24035 ft | 436 kts | 156° |
| 2026-05-06 06:44 | 12.68253 | 100.99333 | 24511 ft | 440 kts | 156° |
| 2026-05-06 06:44 | 12.65381 | 101.00440 | 25013 ft | 444 kts | 161° |
| 2026-05-06 06:44 | 12.62420 | 101.01386 | 25556 ft | 447 kts | 163° |
| 2026-05-06 06:44 | 12.59412 | 101.02248 | 26110 ft | 451 kts | 165° |
| 2026-05-06 06:45 | 12.56371 | 101.03080 | 26690 ft | 454 kts | 165° |
| 2026-05-06 06:45 | 12.53306 | 101.03912 | 27240 ft | 458 kts | 165° |
| 2026-05-06 06:45 | 12.50199 | 101.04765 | 27769 ft | 463 kts | 165° |
| 2026-05-06 06:45 | 12.47084 | 101.05632 | 28351 ft | 466 kts | 165° |
| 2026-05-06 06:46 | 12.43938 | 101.06517 | 28875 ft | 471 kts | 164° |
| 2026-05-06 06:46 | 12.40768 | 101.07389 | 29399 ft | 474 kts | 164° |
| 2026-05-06 06:46 | 12.37541 | 101.08208 | 29868 ft | 478 kts | 169° |
| 2026-05-06 06:46 | 12.34229 | 101.08584 | 30346 ft | 481 kts | 177° |
| 2026-05-06 06:47 | 12.30876 | 101.08715 | 30816 ft | 483 kts | 179° |
| 2026-05-06 06:47 | 12.27493 | 101.08743 | 31247 ft | 487 kts | 180° |
| 2026-05-06 06:47 | 12.24096 | 101.08716 | 31663 ft | 490 kts | 181° |
| 2026-05-06 06:47 | 12.20720 | 101.08668 | 32082 ft | 492 kts | 181° |
| 2026-05-06 06:48 | 12.17274 | 101.08617 | 32485 ft | 495 kts | 181° |
| 2026-05-06 06:48 | 12.13767 | 101.08570 | 32857 ft | 499 kts | 181° |
| 2026-05-06 06:48 | 12.10293 | 101.08533 | 33220 ft | 501 kts | 181° |
| 2026-05-06 06:48 | 12.06795 | 101.08501 | 33594 ft | 504 kts | 180° |
| 2026-05-06 06:49 | 12.03283 | 101.08472 | 33940 ft | 507 kts | 181° |
| 2026-05-06 06:49 | 11.99753 | 101.08446 | 34340 ft | 506 kts | 180° |
| 2026-05-06 06:49 | 11.96250 | 101.08420 | 34859 ft | 502 kts | 180° |
| 2026-05-06 06:49 | 11.92767 | 101.08394 | 35451 ft | 497 kts | 180° |
| 2026-05-06 06:50 | 11.89358 | 101.08369 | 35953 ft | 495 kts | 180° |
| 2026-05-06 06:50 | 11.85922 | 101.08343 | 36392 ft | 493 kts | 180° |
| 2026-05-06 06:50 | 11.82484 | 101.08317 | 36795 ft | 493 kts | 180° |
| 2026-05-06 06:50 | 11.79065 | 101.08290 | 37290 ft | 490 kts | 180° |
| 2026-05-06 06:51 | 11.75668 | 101.08264 | 37771 ft | 487 kts | 180° |
| 2026-05-06 06:51 | 11.72284 | 101.08238 | 38202 ft | 486 kts | 180° |
| 2026-05-06 06:51 | 11.68906 | 101.08213 | 38595 ft | 484 kts | 180° |
| 2026-05-06 06:51 | 11.65540 | 101.08229 | 38921 ft | 483 kts | 176° |
| 2026-05-06 06:52 | 11.62201 | 101.08595 | 39215 ft | 482 kts | 171° |
| 2026-05-06 06:52 | 11.58887 | 101.09134 | 39516 ft | 482 kts | 170° |
| 2026-05-06 06:52 | 11.55591 | 101.09722 | 39808 ft | 481 kts | 169° |
| 2026-05-06 06:52 | 11.52290 | 101.10338 | 40086 ft | 481 kts | 169° |
| 2026-05-06 06:53 | 11.49006 | 101.10961 | 40364 ft | 480 kts | 169° |
| 2026-05-06 06:53 | 11.45724 | 101.11583 | 40671 ft | 479 kts | 169° |
| 2026-05-06 06:53 | 11.42442 | 101.12202 | 40835 ft | 479 kts | 169° |
| 2026-05-06 06:54 | 11.35900 | 101.13425 | 40857 ft | 477 kts | 169° |
| 2026-05-06 06:54 | 11.29364 | 101.14638 | 40854 ft | 477 kts | 169° |
| 2026-05-06 06:55 | 11.22831 | 101.15848 | 40857 ft | 477 kts | 169° |
| 2026-05-06 06:55 | 11.16296 | 101.17059 | 40856 ft | 477 kts | 169° |
| 2026-05-06 06:56 | 11.09807 | 101.18261 | 40855 ft | 477 kts | 169° |
| 2026-05-06 06:56 | 11.03259 | 101.19474 | 40858 ft | 478 kts | 169° |
| 2026-05-06 06:57 | 10.96725 | 101.20684 | 40860 ft | 477 kts | 169° |
| 2026-05-06 06:57 | 10.90189 | 101.21894 | 40856 ft | 477 kts | 169° |
| 2026-05-06 06:58 | 10.83661 | 101.23101 | 40854 ft | 476 kts | 169° |
| 2026-05-06 06:58 | 10.77176 | 101.24300 | 40855 ft | 476 kts | 169° |
| 2026-05-06 06:59 | 10.70617 | 101.25512 | 40857 ft | 478 kts | 169° |
| 2026-05-06 06:59 | 10.64053 | 101.26725 | 40855 ft | 484 kts | 169° |
| 2026-05-06 07:00 | 10.57376 | 101.27957 | 40860 ft | 485 kts | 169° |
| 2026-05-06 07:00 | 10.50752 | 101.29180 | 40857 ft | 485 kts | 169° |
| 2026-05-06 07:01 | 10.44101 | 101.30406 | 40856 ft | 485 kts | 169° |
| 2026-05-06 07:01 | 10.37476 | 101.31628 | 40855 ft | 485 kts | 169° |
| 2026-05-06 07:02 | 10.30818 | 101.32860 | 40853 ft | 483 kts | 169° |
| 2026-05-06 07:02 | 10.24252 | 101.34077 | 40853 ft | 482 kts | 169° |
| 2026-05-06 07:03 | 10.17626 | 101.35304 | 40857 ft | 482 kts | 169° |
| 2026-05-06 07:03 | 10.11055 | 101.36520 | 40855 ft | 482 kts | 169° |
| 2026-05-06 07:04 | 10.04430 | 101.37746 | 40851 ft | 481 kts | 169° |
| 2026-05-06 07:04 | 9.97848 | 101.38963 | 40851 ft | 482 kts | 169° |
| 2026-05-06 07:05 | 9.91221 | 101.40189 | 40854 ft | 486 kts | 169° |
| 2026-05-06 07:05 | 9.84581 | 101.41416 | 40852 ft | 486 kts | 169° |
| 2026-05-06 07:06 | 9.77924 | 101.42645 | 40853 ft | 486 kts | 169° |
| 2026-05-06 07:06 | 9.71269 | 101.43874 | 40854 ft | 486 kts | 169° |
| 2026-05-06 07:07 | 9.65719 | 101.44898 | 40850 ft | 486 kts | 169° |
| 2026-05-06 07:07 | 9.59050 | 101.46130 | 40855 ft | 489 kts | 169° |
| 2026-05-06 07:08 | 9.52344 | 101.47367 | 40853 ft | 491 kts | 169° |
| 2026-05-06 07:08 | 9.44497 | 101.48813 | 40853 ft | 491 kts | 168° |
| 2026-05-06 07:09 | 9.38882 | 101.49848 | 40854 ft | 491 kts | 169° |
| 2026-05-06 07:09 | 9.32212 | 101.51076 | 40851 ft | 492 kts | 168° |
| 2026-05-06 07:10 | 9.25463 | 101.52319 | 40849 ft | 491 kts | 169° |
| 2026-05-06 07:10 | 9.18749 | 101.53555 | 40856 ft | 488 kts | 169° |
| 2026-05-06 07:11 | 9.12063 | 101.54785 | 40851 ft | 487 kts | 169° |
| 2026-05-06 07:11 | 9.05427 | 101.56006 | 40848 ft | 487 kts | 169° |
| 2026-05-06 07:12 | 8.98769 | 101.57230 | 40849 ft | 487 kts | 169° |
| 2026-05-06 07:12 | 8.92087 | 101.58467 | 40848 ft | 487 kts | 169° |
| 2026-05-06 07:13 | 8.85453 | 101.59685 | 40847 ft | 486 kts | 169° |
| 2026-05-06 07:13 | 8.78791 | 101.60908 | 40851 ft | 486 kts | 169° |
| 2026-05-06 07:14 | 8.72111 | 101.62135 | 40847 ft | 486 kts | 169° |
| 2026-05-06 07:14 | 8.65464 | 101.63357 | 40849 ft | 486 kts | 169° |
| 2026-05-06 07:15 | 8.58847 | 101.64574 | 40850 ft | 486 kts | 169° |
| 2026-05-06 07:15 | 8.52165 | 101.65801 | 40848 ft | 486 kts | 169° |
| 2026-05-06 07:16 | 8.45544 | 101.67017 | 40847 ft | 487 kts | 169° |
| 2026-05-06 07:16 | 8.38864 | 101.68244 | 40847 ft | 487 kts | 169° |
| 2026-05-06 07:17 | 8.32194 | 101.69467 | 40845 ft | 487 kts | 168° |
| 2026-05-06 07:17 | 8.25522 | 101.70692 | 40845 ft | 486 kts | 168° |
| 2026-05-06 07:18 | 8.18869 | 101.71913 | 40840 ft | 486 kts | 169° |
| 2026-05-06 07:18 | 8.12203 | 101.73135 | 40841 ft | 488 kts | 168° |
| 2026-05-06 07:19 | 8.05546 | 101.74355 | 40844 ft | 489 kts | 168° |
| 2026-05-06 07:19 | 7.98856 | 101.75592 | 40839 ft | 490 kts | 168° |
| 2026-05-06 07:20 | 7.92126 | 101.76839 | 40839 ft | 489 kts | 168° |
| 2026-05-06 07:20 | 7.85447 | 101.78075 | 40837 ft | 489 kts | 169° |
| 2026-05-06 07:21 | 7.78788 | 101.79307 | 40840 ft | 489 kts | 168° |
| 2026-05-06 07:21 | 7.72091 | 101.80546 | 40835 ft | 489 kts | 168° |
| 2026-05-06 07:22 | 7.65391 | 101.81786 | 40834 ft | 489 kts | 168° |
| 2026-05-06 07:22 | 7.58685 | 101.83027 | 40837 ft | 489 kts | 169° |
| 2026-05-06 07:23 | 7.52001 | 101.84262 | 40840 ft | 489 kts | 168° |
| 2026-05-06 07:23 | 7.45289 | 101.85503 | 40837 ft | 489 kts | 169° |
| 2026-05-06 07:24 | 7.38594 | 101.86740 | 40837 ft | 490 kts | 169° |
| 2026-05-06 07:24 | 7.31891 | 101.87979 | 40838 ft | 490 kts | 168° |
| 2026-05-06 07:25 | 7.25192 | 101.89216 | 40834 ft | 489 kts | 168° |
| 2026-05-06 07:25 | 7.18490 | 101.90453 | 40834 ft | 489 kts | 169° |
| 2026-05-06 07:26 | 7.11820 | 101.91683 | 40831 ft | 489 kts | 168° |
| 2026-05-06 07:26 | 7.05113 | 101.92921 | 40831 ft | 489 kts | 168° |
| 2026-05-06 07:27 | 6.98447 | 101.94151 | 40826 ft | 488 kts | 168° |
| 2026-05-06 07:27 | 6.91767 | 101.95382 | 40829 ft | 488 kts | 169° |
| 2026-05-06 07:28 | 6.85074 | 101.96616 | 40828 ft | 488 kts | 168° |
| 2026-05-06 07:28 | 6.75089 | 101.98457 | 40831 ft | 488 kts | 168° |
| 2026-05-06 07:29 | 6.68410 | 101.99687 | 40830 ft | 488 kts | 168° |
| 2026-05-06 07:29 | 6.61707 | 102.00921 | 40831 ft | 490 kts | 168° |
| 2026-05-06 07:30 | 6.55018 | 102.02153 | 40834 ft | 491 kts | 168° |
| 2026-05-06 07:30 | 6.48299 | 102.03390 | 40836 ft | 490 kts | 168° |
| 2026-05-06 07:31 | 6.41597 | 102.04623 | 40834 ft | 489 kts | 168° |
| 2026-05-06 07:31 | 6.34909 | 102.05853 | 40831 ft | 488 kts | 168° |
| 2026-05-06 07:32 | 6.28203 | 102.07087 | 40833 ft | 489 kts | 168° |
| 2026-05-06 07:32 | 6.21673 | 102.08883 | 40831 ft | 488 kts | 161° |
| 2026-05-06 07:33 | 6.15217 | 102.10977 | 40833 ft | 488 kts | 160° |
| 2026-05-06 07:33 | 6.08746 | 102.13123 | 40827 ft | 488 kts | 160° |
| 2026-05-06 07:34 | 6.02317 | 102.15249 | 40828 ft | 488 kts | 160° |
| 2026-05-06 07:34 | 5.95885 | 102.17367 | 40828 ft | 488 kts | 160° |
| 2026-05-06 07:35 | 5.89420 | 102.19492 | 40817 ft | 488 kts | 160° |
| 2026-05-06 07:35 | 5.82964 | 102.21613 | 40822 ft | 488 kts | 160° |
| 2026-05-06 07:36 | 5.76519 | 102.23730 | 40821 ft | 488 kts | 160° |
| 2026-05-06 07:36 | 5.70115 | 102.25968 | 40822 ft | 487 kts | 157° |
| 2026-05-06 07:37 | 5.63864 | 102.28532 | 40818 ft | 487 kts | 156° |
| 2026-05-06 07:37 | 5.57589 | 102.31133 | 40820 ft | 487 kts | 156° |
| 2026-05-06 07:38 | 5.51311 | 102.33676 | 40823 ft | 487 kts | 156° |
| 2026-05-06 07:38 | 5.45068 | 102.36182 | 40820 ft | 487 kts | 157° |
| 2026-05-06 07:39 | 5.38748 | 102.38700 | 40821 ft | 487 kts | 157° |
| 2026-05-06 07:39 | 5.32466 | 102.41202 | 40814 ft | 487 kts | 156° |
| 2026-05-06 07:40 | 5.26191 | 102.43705 | 40810 ft | 487 kts | 156° |
| 2026-05-06 07:40 | 5.19879 | 102.46225 | 40809 ft | 486 kts | 157° |
| 2026-05-06 07:41 | 5.13613 | 102.48730 | 40814 ft | 486 kts | 157° |
| 2026-05-06 07:41 | 5.07283 | 102.51256 | 40816 ft | 486 kts | 157° |
| 2026-05-06 07:42 | 5.01037 | 102.53746 | 40812 ft | 486 kts | 157° |
| 2026-05-06 07:42 | 4.94727 | 102.56262 | 40813 ft | 486 kts | 157° |
| 2026-05-06 07:43 | 4.88461 | 102.58768 | 40809 ft | 486 kts | 157° |
| 2026-05-06 07:43 | 4.82146 | 102.61282 | 40809 ft | 486 kts | 157° |
| 2026-05-06 07:44 | 4.75854 | 102.63788 | 40816 ft | 487 kts | 157° |
| 2026-05-06 07:44 | 4.69584 | 102.66286 | 40816 ft | 486 kts | 157° |
| 2026-05-06 07:45 | 4.63288 | 102.68795 | 40814 ft | 487 kts | 157° |
| 2026-05-06 07:45 | 4.57009 | 102.71303 | 40817 ft | 487 kts | 157° |
| 2026-05-06 07:46 | 4.50706 | 102.73814 | 40817 ft | 487 kts | 157° |
| 2026-05-06 07:46 | 4.44402 | 102.76321 | 40814 ft | 487 kts | 157° |
| 2026-05-06 07:47 | 4.38120 | 102.78819 | 40818 ft | 487 kts | 156° |
| 2026-05-06 07:47 | 4.31852 | 102.81315 | 40817 ft | 487 kts | 157° |
| 2026-05-06 07:48 | 4.25520 | 102.83837 | 40816 ft | 487 kts | 157° |
| 2026-05-06 07:48 | 4.19232 | 102.86338 | 40815 ft | 487 kts | 156° |
| 2026-05-06 07:49 | 4.12919 | 102.88851 | 40811 ft | 487 kts | 157° |
| 2026-05-06 07:49 | 4.06661 | 102.91341 | 40812 ft | 487 kts | 157° |
| 2026-05-06 07:50 | 4.00379 | 102.93839 | 40811 ft | 487 kts | 157° |
| 2026-05-06 07:50 | 3.94046 | 102.96359 | 40809 ft | 487 kts | 157° |
| 2026-05-06 07:51 | 3.87756 | 102.98860 | 40812 ft | 487 kts | 156° |
| 2026-05-06 07:51 | 3.81495 | 103.01350 | 40812 ft | 487 kts | 156° |
| 2026-05-06 07:52 | 3.75217 | 103.03851 | 40811 ft | 487 kts | 156° |
| 2026-05-06 07:52 | 3.68891 | 103.06365 | 40807 ft | 487 kts | 157° |
| 2026-05-06 07:53 | 3.62625 | 103.08852 | 40806 ft | 486 kts | 157° |
| 2026-05-06 07:53 | 3.56331 | 103.11350 | 40807 ft | 486 kts | 157° |
| 2026-05-06 07:54 | 3.50035 | 103.13852 | 40808 ft | 486 kts | 157° |
| 2026-05-06 07:54 | 3.44823 | 103.15922 | 40805 ft | 486 kts | 157° |
| 2026-05-06 07:55 | 3.37479 | 103.18840 | 40799 ft | 485 kts | 157° |
| 2026-05-06 07:55 | 3.32278 | 103.20997 | 40801 ft | 485 kts | 152° |
| 2026-05-06 07:56 | 3.28472 | 103.23327 | 40805 ft | 482 kts | 141° |
| 2026-05-06 07:56 | 3.26762 | 103.24771 | 40799 ft | 481 kts | 135° |
| 2026-05-06 07:56 | 3.22052 | 103.29521 | 40798 ft | 481 kts | 132° |
| 2026-05-06 07:57 | 3.17468 | 103.34428 | 40802 ft | 481 kts | 132° |
| 2026-05-06 07:57 | 3.12900 | 103.39327 | 40801 ft | 481 kts | 132° |
| 2026-05-06 07:58 | 3.08343 | 103.44174 | 40800 ft | 481 kts | 132° |
| 2026-05-06 07:58 | 3.03747 | 103.49046 | 40800 ft | 481 kts | 132° |
| 2026-05-06 07:59 | 2.99132 | 103.53933 | 40801 ft | 481 kts | 132° |
| 2026-05-06 07:59 | 2.94539 | 103.58796 | 40797 ft | 481 kts | 132° |
| 2026-05-06 08:00 | 2.89725 | 103.63384 | 40804 ft | 482 kts | 142° |
| 2026-05-06 08:00 | 2.83893 | 103.66697 | 40803 ft | 483 kts | 153° |
| 2026-05-06 08:01 | 2.77759 | 103.69485 | 40802 ft | 484 kts | 155° |